Time;durP1;ratioP1;P1;durP2;ratioP2;P2;SDS_P1;SDS_P2;PMS_P1;PMS_P2;Temp;Humidity;BMP_temperature;BMP_pressure;BME280_temperature;BME280_humidity;BME280_pressure;Samples;Min_cycle;Max_cycle;Signal;HPM_P1;HPM_P2
2023/09/06 00:01:13;;;;;;;10.20;5.35;;;25.10;91.50;;;;;;4249854;27;20231;-60
2023/09/06 00:03:16;;;;;;;9.20;5.65;;;25.10;91.40;;;;;;4251258;27;20043;-56
2023/09/06 00:05:20;;;;;;;10.73;5.03;;;25.10;91.30;;;;;;4252208;27;20552;-57
2023/09/06 00:07:23;;;;;;;9.20;5.18;;;25.00;91.50;;;;;;4253059;27;20465;-58
2023/09/06 00:09:25;;;;;;;10.40;5.80;;;24.90;91.40;;;;;;4252593;27;20125;-62
2023/09/06 00:11:27;;;;;;;10.35;5.18;;;24.90;91.30;;;;;;4234362;28;20050;-64
2023/09/06 00:13:31;;;;;;;12.82;4.82;;;24.90;91.40;;;;;;4253258;27;20047;-69
2023/09/06 00:15:33;;;;;;;6.10;4.38;;;24.90;91.30;;;;;;4250726;27;20067;-64
2023/09/06 00:17:37;;;;;;;12.63;5.22;;;24.90;91.40;;;;;;4248665;27;20047;-55
2023/09/06 00:19:39;;;;;;;11.38;5.10;;;24.90;91.50;;;;;;4267667;27;20078;-56
2023/09/06 00:21:43;;;;;;;9.05;5.15;;;24.90;91.60;;;;;;4266334;27;20113;-55
2023/09/06 00:23:46;;;;;;;;;;;24.80;91.60;;;;;;4268067;27;20042;-55
2023/09/06 00:25:48;;;;;;;8.48;5.20;;;24.80;91.90;;;;;;4267065;27;19954;-58
2023/09/06 00:27:50;;;;;;;11.93;4.40;;;24.70;91.70;;;;;;4267209;27;20411;-57
2023/09/06 00:29:53;;;;;;;8.57;4.90;;;24.70;91.60;;;;;;4267726;27;20042;-63
2023/09/06 00:31:57;;;;;;;11.52;5.13;;;24.80;91.70;;;;;;4248683;27;20039;-57
2023/09/06 00:33:59;;;;;;;9.38;4.97;;;24.80;91.70;;;;;;4268978;27;20532;-57
2023/09/06 00:36:03;;;;;;;17.58;5.55;;;24.80;91.80;;;;;;4267144;27;20074;-57
2023/09/06 00:38:06;;;;;;;11.27;4.93;;;24.80;91.70;;;;;;4267140;27;20532;-58
2023/09/06 00:40:14;;;;;;;8.60;4.90;;;24.70;91.80;;;;;;4266423;27;20122;-58
2023/09/06 00:42:17;;;;;;;9.35;4.78;;;24.70;91.80;;;;;;4267069;27;20076;-58
2023/09/06 00:44:19;;;;;;;11.43;4.22;;;24.70;91.90;;;;;;4249347;27;20051;-58
2023/09/06 00:46:22;;;;;;;12.70;5.00;;;24.70;91.80;;;;;;4267004;27;20043;-58
2023/09/06 00:48:26;;;;;;;11.38;4.93;;;24.70;91.80;;;;;;4248031;27;20142;-57
2023/09/06 00:50:29;;;;;;;11.77;4.68;;;24.70;91.80;;;;;;4249748;27;20113;-58
2023/09/06 00:52:32;;;;;;;7.57;4.15;;;24.70;92.00;;;;;;4268003;27;20044;-58
2023/09/06 00:54:39;;;;;;;11.38;4.93;;;24.70;92.10;;;;;;4266939;27;20043;-54
2023/09/06 00:56:41;;;;;;;15.55;4.57;;;24.70;92.00;;;;;;4267282;27;20054;-60
2023/09/06 00:58:45;;;;;;;8.88;3.80;;;24.70;91.90;;;;;;4266915;27;20043;-57
2023/09/06 01:00:48;;;;;;;9.90;4.53;;;24.70;91.80;;;;;;4266289;27;20079;-59
2023/09/06 01:02:51;;;;;;;9.90;4.40;;;24.70;92.10;;;;;;4267641;27;20108;-57
2023/09/06 01:04:53;;;;;;;11.60;4.72;;;24.70;92.10;;;;;;4267646;27;20125;-57
2023/09/06 01:06:58;;;;;;;10.68;4.40;;;24.70;92.00;;;;;;4267226;27;20060;-56
2023/09/06 01:09:03;;;;;;;;;;;24.70;92.00;;;;;;4267435;27;20047;-57
2023/09/06 01:11:18;;;;;;;12.02;4.18;;;24.70;92.20;;;;;;4265986;27;20445;-55
2023/09/06 01:13:20;;;;;;;14.15;4.30;;;24.60;92.00;;;;;;4266561;27;20112;-56
2023/09/06 01:15:23;;;;;;;15.02;4.05;;;24.70;92.00;;;;;;4248316;27;20043;-57
2023/09/06 01:17:28;;;;;;;16.35;4.38;;;24.60;92.00;;;;;;4266138;27;20498;-56
2023/09/06 01:19:32;;;;;;;7.60;3.88;;;24.70;92.10;;;;;;4266357;27;20157;-59
2023/09/06 01:21:38;;;;;;;10.23;4.78;;;24.60;92.40;;;;;;4247082;27;20569;-62
2023/09/06 01:23:42;;;;;;;9.98;4.13;;;24.60;92.20;;;;;;4266139;27;20047;-57
2023/09/06 01:25:45;;;;;;;9.27;4.25;;;24.60;92.20;;;;;;4266259;27;20066;-55
2023/09/06 01:27:47;;;;;;;11.88;4.53;;;24.60;92.20;;;;;;4265835;27;20047;-55
2023/09/06 01:29:50;;;;;;;13.52;4.60;;;24.60;92.20;;;;;;4266397;27;20550;-55
2023/09/06 01:31:52;;;;;;;9.75;4.03;;;24.60;92.30;;;;;;4264785;27;20139;-57
2023/09/06 01:33:59;;;;;;;8.02;3.80;;;24.50;92.40;;;;;;4266506;27;20043;-55
2023/09/06 01:36:01;;;;;;;7.38;3.83;;;24.50;92.30;;;;;;4266136;27;20487;-56
2023/09/06 01:38:03;;;;;;;8.90;3.92;;;24.50;92.40;;;;;;4267055;27;20073;-56
2023/09/06 01:40:17;;;;;;;10.68;4.18;;;24.40;92.50;;;;;;4266111;27;20069;-58
2023/09/06 01:42:22;;;;;;;6.95;4.13;;;24.50;92.30;;;;;;4247043;27;20051;-55
2023/09/06 01:44:26;;;;;;;9.07;4.78;;;24.40;92.20;;;;;;4266451;27;20085;-57
2023/09/06 01:46:29;;;;;;;9.60;3.85;;;24.40;92.20;;;;;;4265855;27;20421;-57
2023/09/06 01:48:32;;;;;;;10.25;4.55;;;24.40;92.30;;;;;;4247974;27;20535;-57
2023/09/06 01:50:35;;;;;;;12.40;4.05;;;24.40;92.20;;;;;;4264743;27;20047;-57
2023/09/06 01:52:40;;;;;;;11.30;4.28;;;24.40;92.20;;;;;;4265721;27;20135;-57
2023/09/06 01:54:45;;;;;;;7.05;4.10;;;24.30;92.40;;;;;;4265928;27;20105;-58
2023/09/06 01:56:49;;;;;;;7.60;4.03;;;24.30;92.50;;;;;;4265919;27;20053;-58
2023/09/06 01:58:51;;;;;;;9.45;4.03;;;24.30;92.50;;;;;;4265857;27;20058;-57
2023/09/06 02:00:53;;;;;;;9.88;3.70;;;24.30;92.50;;;;;;4264362;27;20051;-58
2023/09/06 02:02:55;;;;;;;8.95;3.92;;;24.20;92.50;;;;;;4265141;27;20045;-55
2023/09/06 02:04:57;;;;;;;6.35;3.63;;;24.20;92.60;;;;;;4265354;27;20357;-57
2023/09/06 02:07:02;;;;;;;11.98;4.22;;;24.20;92.70;;;;;;4265584;27;20099;-57
2023/09/06 02:09:04;;;;;;;8.98;3.97;;;24.10;92.90;;;;;;4265645;27;20047;-55
2023/09/06 02:11:07;;;;;;;9.88;3.75;;;24.10;92.70;;;;;;4264322;27;20117;-57
2023/09/06 02:13:10;;;;;;;8.48;3.70;;;24.10;92.70;;;;;;4265274;27;20042;-57
2023/09/06 02:15:14;;;;;;;11.40;4.15;;;24.10;92.80;;;;;;4265108;27;20043;-57
2023/09/06 02:17:18;;;;;;;6.65;3.35;;;24.00;92.80;;;;;;4265242;27;20034;-58
2023/09/06 02:19:20;;;;;;;13.82;4.40;;;24.00;92.90;;;;;;4265205;27;20494;-55
2023/09/06 02:21:22;;;;;;;13.60;4.22;;;24.10;92.80;;;;;;4264534;27;20050;-57
2023/09/06 02:23:24;;;;;;;9.70;4.47;;;24.10;92.70;;;;;;4246971;27;20115;-57
2023/09/06 02:25:29;;;;;;;10.00;4.18;;;24.10;92.70;;;;;;4265257;27;20066;-54
2023/09/06 02:27:31;;;;;;;6.05;3.53;;;24.10;92.80;;;;;;4265168;27;20054;-58
2023/09/06 02:29:35;;;;;;;7.57;4.15;;;24.00;92.90;;;;;;4265080;27;20062;-57
2023/09/06 02:31:38;;;;;;;8.43;3.75;;;24.00;92.90;;;;;;4263924;27;20059;-57
2023/09/06 02:33:40;;;;;;;10.80;3.63;;;24.00;92.90;;;;;;4265389;27;20046;-55
2023/09/06 02:35:43;;;;;;;12.82;4.47;;;24.00;92.80;;;;;;4265017;27;20509;-55
2023/09/06 02:37:45;;;;;;;8.57;4.18;;;24.00;92.80;;;;;;4265061;27;20412;-54
2023/09/06 02:39:52;;;;;;;10.52;4.53;;;24.00;92.80;;;;;;4265106;27;20480;-55
2023/09/06 02:41:54;;;;;;;7.93;3.92;;;24.00;92.90;;;;;;4264112;27;20070;-57
2023/09/06 02:43:58;;;;;;;7.95;3.75;;;24.00;93.00;;;;;;4246466;27;20047;-55
2023/09/06 02:46:03;;;;;;;11.02;4.20;;;23.90;93.10;;;;;;4265188;27;20066;-55
2023/09/06 02:48:07;;;;;;;8.82;3.90;;;23.90;93.10;;;;;;4264815;27;20492;-55
2023/09/06 02:50:11;;;;;;;8.83;4.13;;;23.80;93.20;;;;;;4265073;27;20539;-57
2023/09/06 02:52:28;;;;;;;10.07;4.35;;;23.70;93.30;;;;;;4263992;27;20057;-54
2023/09/06 02:54:30;;;;;;;10.98;3.90;;;23.80;93.50;;;;;;4264991;27;20047;-55
2023/09/06 02:56:34;;;;;;;11.65;3.63;;;23.70;93.80;;;;;;4265160;27;20043;-55
2023/09/06 02:58:37;;;;;;;10.00;4.10;;;23.70;93.50;;;;;;4264442;27;20066;-56
2023/09/06 03:00:40;;;;;;;5.47;3.55;;;23.70;93.40;;;;;;4264053;27;20043;-56
2023/09/06 03:02:44;;;;;;;6.63;3.67;;;23.70;93.60;;;;;;4264740;27;20070;-56
2023/09/06 03:04:46;;;;;;;8.02;3.90;;;23.60;93.60;;;;;;4264839;27;20043;-56
2023/09/06 03:06:48;;;;;;;10.85;4.32;;;23.60;93.60;;;;;;4264730;27;20107;-57
2023/09/06 03:08:51;;;;;;;9.00;3.60;;;23.60;93.90;;;;;;4264714;27;20415;-58
2023/09/06 03:10:53;;;;;;;8.40;3.70;;;23.60;93.90;;;;;;4263771;27;20039;-57
2023/09/06 03:12:56;;;;;;;11.95;4.07;;;23.50;93.90;;;;;;4263884;27;20042;-56
2023/09/06 03:14:59;;;;;;;9.48;3.50;;;23.50;94.00;;;;;;4264304;27;20515;-57
2023/09/06 03:17:08;;;;;;;6.85;4.32;;;23.50;94.10;;;;;;4264629;27;20043;-57
2023/09/06 03:19:13;;;;;;;7.60;3.75;;;23.50;94.10;;;;;;4264557;27;20480;-58
2023/09/06 03:21:16;;;;;;;;;;;23.50;94.10;;;;;;4264656;27;20053;-58
2023/09/06 03:23:18;;;;;;;13.65;4.35;;;23.40;94.50;;;;;;4264651;27;20491;-58
2023/09/06 03:25:21;;;;;;;11.20;4.05;;;23.40;94.20;;;;;;4264580;27;20047;-56
2023/09/06 03:27:24;;;;;;;11.45;3.90;;;23.40;94.20;;;;;;4265316;27;20050;-58
2023/09/06 03:29:27;;;;;;;9.95;4.00;;;23.40;94.20;;;;;;4265489;27;20042;-56
2023/09/06 03:31:29;;;;;;;10.80;4.05;;;23.40;94.20;;;;;;4264211;27;20073;-58
2023/09/06 03:33:31;;;;;;;10.98;4.60;;;23.40;94.30;;;;;;4265418;27;20042;-57
2023/09/06 03:35:35;;;;;;;11.38;5.53;;;23.40;94.20;;;;;;4264632;27;20043;-58
2023/09/06 03:37:40;;;;;;;8.55;4.20;;;23.40;94.20;;;;;;4264697;27;20074;-55
2023/09/06 03:39:43;;;;;;;8.40;3.97;;;23.50;94.20;;;;;;4264461;27;20050;-55
2023/09/06 03:41:46;;;;;;;6.85;3.95;;;23.40;94.30;;;;;;4263460;27;20046;-55
2023/09/06 03:43:48;;;;;;;8.13;3.65;;;23.40;94.30;;;;;;4264500;27;20054;-55
2023/09/06 03:45:51;;;;;;;8.30;4.20;;;23.40;94.30;;;;;;4264489;27;20112;-55
2023/09/06 03:47:54;;;;;;;21.77;4.95;;;23.40;94.40;;;;;;4264276;27;20050;-56
2023/09/06 03:49:59;;;;;;;10.35;4.75;;;23.40;94.40;;;;;;4246022;27;20071;-55
2023/09/06 03:52:04;;;;;;;10.50;4.40;;;23.40;94.50;;;;;;4263402;27;20047;-55
2023/09/06 03:54:06;;;;;;;8.98;4.43;;;23.40;94.40;;;;;;4264342;27;20098;-56
2023/09/06 03:56:10;;;;;;;18.48;5.22;;;23.40;94.50;;;;;;4263913;27;20130;-58
2023/09/06 03:58:12;;;;;;;12.93;4.55;;;23.40;94.60;;;;;;4264542;27;20047;-58
2023/09/06 04:00:30;;;;;;;12.68;4.78;;;23.30;94.50;;;;;;4245953;28;20074;-58
2023/09/06 04:02:34;;;;;;;9.95;4.20;;;23.40;94.50;;;;;;4263857;27;20424;-58
2023/09/06 04:04:37;;;;;;;11.95;4.95;;;23.40;94.60;;;;;;4264272;27;20416;-58
2023/09/06 04:06:43;;;;;;;7.97;4.07;;;23.40;94.70;;;;;;4264143;27;20043;-58
2023/09/06 04:08:46;;;;;;;14.05;5.10;;;23.30;94.70;;;;;;4264339;27;20084;-58
2023/09/06 04:10:49;;;;;;;9.63;4.30;;;23.30;94.80;;;;;;4263761;27;20047;-55
2023/09/06 04:12:53;;;;;;;12.50;4.35;;;23.30;94.90;;;;;;4263805;27;20058;-58
2023/09/06 04:14:57;;;;;;;10.63;4.53;;;23.20;94.90;;;;;;4264310;27;20548;-58
2023/09/06 04:16:59;;;;;;;12.35;5.38;;;23.20;95.10;;;;;;4264085;27;20494;-54
2023/09/06 04:19:01;;;;;;;11.73;4.43;;;23.20;95.10;;;;;;4264338;27;20095;-56
2023/09/06 04:21:08;;;;;;;7.90;3.47;;;23.20;95.00;;;;;;4263554;27;20047;-58
2023/09/06 04:23:13;;;;;;;12.40;4.70;;;23.20;95.00;;;;;;4264018;27;20403;-57
2023/09/06 04:25:17;;;;;;;9.10;4.03;;;23.20;95.20;;;;;;4263886;27;20548;-55
2023/09/06 04:27:20;;;;;;;9.80;3.85;;;23.20;95.10;;;;;;4267170;27;20134;-56
2023/09/06 04:29:24;;;;;;;9.50;4.28;;;23.10;95.20;;;;;;4267212;27;20050;-57
2023/09/06 04:31:26;;;;;;;6.97;3.70;;;23.20;95.20;;;;;;4266329;27;20099;-57
2023/09/06 04:33:28;;;;;;;11.35;4.13;;;23.10;95.30;;;;;;4266970;27;20854;-55
2023/09/06 04:35:33;;;;;;;7.47;3.60;;;23.10;95.30;;;;;;4267183;27;20463;-55
2023/09/06 04:37:38;;;;;;;13.05;4.65;;;23.10;95.40;;;;;;4267056;27;20349;-58
2023/09/06 04:39:43;;;;;;;9.35;4.63;;;23.10;95.50;;;;;;4266588;27;20076;-58
2023/09/06 04:41:46;;;;;;;;;;;23.10;95.50;;;;;;4248125;27;20043;-58
2023/09/06 04:43:48;;;;;;;17.35;5.55;;;23.10;95.70;;;;;;4266849;27;19919;-57
2023/09/06 04:45:50;;;;;;;26.73;6.30;;;23.10;95.60;;;;;;4266820;27;20035;-57
2023/09/06 04:47:52;;;;;;;11.30;5.15;;;23.10;95.70;;;;;;4266570;27;20061;-58
2023/09/06 04:49:54;;;;;;;14.80;5.40;;;23.10;95.90;;;;;;4267123;27;20039;-57
2023/09/06 04:51:56;;;;;;;14.43;5.13;;;23.00;95.70;;;;;;4265729;27;20360;-58
2023/09/06 04:53:59;;;;;;;25.67;6.47;;;23.00;95.70;;;;;;4266428;27;20047;-57
2023/09/06 04:56:03;;;;;;;20.05;5.07;;;23.10;95.80;;;;;;4266777;27;20150;-57
2023/09/06 04:58:08;;;;;;;17.53;5.63;;;23.10;95.80;;;;;;4266811;27;20043;-55
2023/09/06 05:00:33;;;;;;;17.95;5.75;;;23.10;95.90;;;;;;4266783;27;20503;-58
2023/09/06 05:02:33;;;;;;;17.08;5.55;;;23.10;96.10;;;;;;4265593;27;20043;-58
2023/09/06 05:04:36;;;;;;;16.35;5.43;;;23.10;95.90;;;;;;4266499;27;20511;-58
2023/09/06 05:06:38;;;;;;;15.65;5.60;;;23.00;96.30;;;;;;4266661;27;20103;-56
2023/09/06 05:08:41;;;;;;;19.15;5.97;;;23.10;95.90;;;;;;4248035;27;20051;-58
2023/09/06 05:10:43;;;;;;;25.85;6.30;;;23.10;96.00;;;;;;4266579;27;20115;-58
2023/09/06 05:12:46;;;;;;;15.65;5.13;;;23.10;96.10;;;;;;4265366;27;20050;-57
2023/09/06 05:14:49;;;;;;;11.32;5.40;;;23.10;96.10;;;;;;4266521;27;20051;-58
2023/09/06 05:16:51;;;;;;;18.80;5.30;;;23.00;96.20;;;;;;4266551;27;20042;-58
2023/09/06 05:18:53;;;;;;;11.13;4.95;;;23.00;96.20;;;;;;4266092;27;20057;-58
2023/09/06 05:20:56;;;;;;;11.05;4.35;;;22.90;96.40;;;;;;4266567;27;20099;-57
2023/09/06 05:23:00;;;;;;;13.15;4.80;;;22.90;96.50;;;;;;4265012;27;20045;-58
2023/09/06 05:25:02;;;;;;;12.82;5.30;;;22.90;96.50;;;;;;4266394;27;20039;-58
2023/09/06 05:27:04;;;;;;;11.85;4.88;;;22.90;96.40;;;;;;4266230;27;20050;-58
2023/09/06 05:29:06;;;;;;;12.02;4.45;;;23.00;96.20;;;;;;4266322;27;20042;-57
2023/09/06 05:31:10;;;;;;;14.45;4.90;;;23.00;96.30;;;;;;4265609;27;20097;-57
2023/09/06 05:33:14;;;;;;;11.98;4.40;;;23.00;96.30;;;;;;4266084;27;20046;-57
2023/09/06 05:35:16;;;;;;;18.88;5.03;;;23.00;96.30;;;;;;4266003;27;20046;-57
2023/09/06 05:37:18;;;;;;;16.00;4.90;;;22.90;96.40;;;;;;4265317;27;20069;-58
2023/09/06 05:39:20;;;;;;;12.25;5.25;;;23.00;96.30;;;;;;4266245;27;20070;-57
2023/09/06 05:41:22;;;;;;;14.82;5.15;;;22.90;96.30;;;;;;4265418;27;20113;-57
2023/09/06 05:43:24;;;;;;;18.05;5.13;;;23.00;96.30;;;;;;4265942;27;20469;-58
2023/09/06 05:45:27;;;;;;;23.65;5.78;;;23.00;96.30;;;;;;4265874;27;20046;-57
2023/09/06 05:47:30;;;;;;;15.32;5.78;;;23.10;96.20;;;;;;4247509;27;20070;-58
2023/09/06 05:49:33;;;;;;;22.05;5.50;;;23.00;96.30;;;;;;4265930;27;20130;-57
2023/09/06 05:51:35;;;;;;;18.10;5.25;;;23.00;96.40;;;;;;4264583;27;20046;-58
2023/09/06 05:53:37;;;;;;;22.58;5.50;;;23.00;96.60;;;;;;4265600;27;20066;-58
2023/09/06 05:55:39;;;;;;;19.55;5.50;;;23.00;96.30;;;;;;4265954;27;20047;-58
2023/09/06 05:57:42;;;;;;;21.10;5.88;;;23.00;96.30;;;;;;4265880;27;20050;-56
2023/09/06 05:59:44;;;;;;;16.02;5.28;;;23.10;96.20;;;;;;4265751;27;20066;-56
2023/09/06 06:01:47;;;;;;;21.00;5.07;;;23.10;96.20;;;;;;4264686;27;20051;-56
2023/09/06 06:03:50;;;;;;;18.10;5.50;;;23.10;96.10;;;;;;4265725;27;20066;-57
2023/09/06 06:05:55;;;;;;;21.70;5.55;;;23.10;96.10;;;;;;4265480;27;20042;-58
2023/09/06 06:07:59;;;;;;;15.03;5.37;;;23.20;96.10;;;;;;4265506;27;20113;-56
2023/09/06 06:10:02;;;;;;;20.50;6.07;;;23.20;96.00;;;;;;4265702;27;20773;-55
2023/09/06 06:12:04;;;;;;;19.88;4.97;;;23.20;96.00;;;;;;4264519;27;20077;-58
2023/09/06 06:14:07;;;;;;;17.63;4.97;;;23.20;96.00;;;;;;4265710;27;20050;-58
2023/09/06 06:16:12;;;;;;;17.63;5.22;;;23.20;96.00;;;;;;4265219;27;20034;-55
2023/09/06 06:18:16;;;;;;;25.42;6.68;;;23.20;96.00;;;;;;4265317;27;20066;-54
2023/09/06 06:20:19;;;;;;;23.92;6.40;;;23.20;96.10;;;;;;4265139;27;20047;-55
2023/09/06 06:22:34;;;;;;;19.75;5.70;;;23.10;96.10;;;;;;4264500;27;20078;-55
2023/09/06 06:24:36;;;;;;;41.65;5.22;;;23.20;96.10;;;;;;4265483;27;20426;-55
2023/09/06 06:26:38;;;;;;;21.02;5.88;;;23.10;96.10;;;;;;4265460;27;20099;-55
2023/09/06 06:28:40;;;;;;;27.63;5.85;;;23.20;96.00;;;;;;4265375;27;20050;-56
2023/09/06 06:30:43;;;;;;;21.42;6.15;;;23.30;96.00;;;;;;4265143;27;20057;-58
2023/09/06 06:32:45;;;;;;;20.98;5.75;;;23.30;95.90;;;;;;4264075;27;20047;-57
2023/09/06 06:34:49;;;;;;;23.45;5.97;;;23.40;95.70;;;;;;4264799;27;20045;-57
2023/09/06 06:36:53;;;;;;;26.75;5.93;;;23.40;95.60;;;;;;4265227;27;20114;-57
2023/09/06 06:38:56;;;;;;;21.70;5.57;;;23.50;95.60;;;;;;4265132;27;20051;-57
2023/09/06 06:40:58;;;;;;;25.15;6.00;;;23.50;95.50;;;;;;4246694;27;20051;-57
2023/09/06 06:43:00;;;;;;;22.90;6.63;;;23.60;95.50;;;;;;4264137;27;20034;-54
2023/09/06 06:45:04;;;;;;;42.42;7.57;;;23.60;95.50;;;;;;4264891;27;20129;-54
2023/09/06 06:47:06;;;;;;;72.23;10.43;;;23.50;95.50;;;;;;4265036;27;20476;-54
2023/09/06 06:49:09;;;;;;;40.80;7.68;;;23.50;95.50;;;;;;4263656;27;20058;-55
2023/09/06 06:51:11;;;;;;;67.97;10.35;;;23.60;95.40;;;;;;4264882;27;20046;-54
2023/09/06 06:53:14;;;;;;;39.08;7.18;;;23.60;95.30;;;;;;4264015;27;20058;-58
2023/09/06 06:55:17;;;;;;;25.30;6.32;;;23.70;95.30;;;;;;4265086;27;20470;-59
2023/09/06 06:57:19;;;;;;;29.08;6.72;;;23.70;95.30;;;;;;4264937;27;20057;-59
2023/09/06 06:59:21;;;;;;;53.60;8.27;;;23.70;95.20;;;;;;4264927;27;20529;-58
2023/09/06 07:01:24;;;;;;;80.95;11.55;;;23.80;95.20;;;;;;4264767;27;20122;-60
2023/09/06 07:03:28;;;;;;;37.45;7.47;;;23.80;95.20;;;;;;4264413;27;20568;-59
2023/09/06 07:05:31;;;;;;;26.65;7.10;;;23.80;95.30;;;;;;4264655;27;20043;-59
2023/09/06 07:07:33;;;;;;;27.25;6.43;;;23.80;95.20;;;;;;4264897;27;20042;-55
2023/09/06 07:09:37;;;;;;;28.92;5.97;;;23.80;95.20;;;;;;4264926;27;20129;-56
2023/09/06 07:11:39;;;;;;;30.15;5.70;;;23.90;95.10;;;;;;4263970;27;20047;-55
2023/09/06 07:13:42;;;;;;;36.83;6.78;;;23.90;95.10;;;;;;4264333;27;20035;-56
2023/09/06 07:15:44;;;;;;;23.75;6.10;;;24.00;95.00;;;;;;4264597;27;20047;-55
2023/09/06 07:17:46;;;;;;;71.72;10.85;;;24.00;94.90;;;;;;4264563;27;20049;-55
2023/09/06 07:19:49;;;;;;;75.68;9.32;;;24.10;94.60;;;;;;4264689;27;20043;-57
2023/09/06 07:21:52;;;;;;;27.02;5.68;;;24.10;94.70;;;;;;4263956;27;20047;-57
2023/09/06 07:23:54;;;;;;;24.48;5.10;;;24.10;94.50;;;;;;4264673;27;20047;-57
2023/09/06 07:25:58;;;;;;;48.70;7.53;;;24.10;94.50;;;;;;4264832;27;20099;-57
2023/09/06 07:28:00;;;;;;;26.08;5.97;;;24.20;94.40;;;;;;4264592;27;20049;-58
2023/09/06 07:30:02;;;;;;;27.65;5.65;;;24.20;94.40;;;;;;4264522;27;20066;-57
2023/09/06 07:32:05;;;;;;;20.02;4.78;;;24.30;94.30;;;;;;4263670;27;20133;-57
2023/09/06 07:34:08;;;;;;;15.02;5.40;;;24.40;94.20;;;;;;4264274;27;20046;-58
2023/09/06 07:36:11;;;;;;;11.30;4.40;;;24.40;94.00;;;;;;4264752;27;20039;-57
2023/09/06 07:38:13;;;;;;;18.83;4.57;;;24.40;93.90;;;;;;4264675;27;20138;-57
2023/09/06 07:40:16;;;;;;;13.07;4.50;;;24.50;93.80;;;;;;4264623;27;20081;-57
2023/09/06 07:42:19;;;;;;;28.88;4.50;;;24.50;93.80;;;;;;4245171;28;20503;-58
2023/09/06 07:44:21;;;;;;;14.50;4.07;;;24.60;93.70;;;;;;4264493;27;20488;-57
2023/09/06 07:46:25;;;;;;;12.63;4.47;;;24.70;93.70;;;;;;4264674;27;20047;-58
2023/09/06 07:48:29;;;;;;;16.83;4.60;;;24.70;93.50;;;;;;4264754;27;20138;-57
2023/09/06 07:50:32;;;;;;;14.25;4.18;;;24.70;93.60;;;;;;4264849;27;20442;-57
2023/09/06 07:52:34;;;;;;;15.07;4.35;;;24.80;93.50;;;;;;4264934;27;20082;-58
2023/09/06 07:54:37;;;;;;;11.70;4.15;;;24.90;93.40;;;;;;4247326;27;20076;-57
2023/09/06 07:56:39;;;;;;;10.52;4.35;;;25.00;93.30;;;;;;4264449;27;20065;-57
2023/09/06 07:58:43;;;;;;;17.63;4.40;;;25.10;93.20;;;;;;4264550;27;20503;-61
2023/09/06 08:00:46;;;;;;;12.40;4.28;;;25.20;93.00;;;;;;4267262;27;20502;-57
2023/09/06 08:02:51;;;;;;;13.43;4.18;;;25.30;92.90;;;;;;4266453;27;20038;-57
2023/09/06 08:04:54;;;;;;;14.88;4.97;;;25.40;93.00;;;;;;4267629;27;20039;-57
2023/09/06 08:06:56;;;;;;;22.92;4.55;;;25.40;92.70;;;;;;4267650;27;20422;-57
2023/09/06 08:08:58;;;;;;;29.95;6.00;;;25.60;92.60;;;;;;4267716;27;20125;-57
2023/09/06 08:11:00;;;;;;;19.10;5.00;;;25.60;92.70;;;;;;4267683;27;20122;-57
2023/09/06 08:13:06;;;;;;;21.98;5.05;;;25.70;92.40;;;;;;4262707;27;20070;-57
2023/09/06 08:15:09;;;;;;;16.92;4.68;;;25.80;92.30;;;;;;4251082;27;20134;-55
2023/09/06 08:17:12;;;;;;;20.08;4.43;;;25.80;92.10;;;;;;4265729;27;20042;-57
2023/09/06 08:19:14;;;;;;;16.60;4.32;;;25.80;92.20;;;;;;4266841;27;20484;-55
2023/09/06 08:21:16;;;;;;;19.90;4.97;;;25.80;92.10;;;;;;4266380;27;20066;-55
2023/09/06 08:23:19;;;;;;;9.48;4.43;;;25.90;92.10;;;;;;4266091;27;20047;-57
2023/09/06 08:25:21;;;;;;;25.30;4.55;;;26.10;92.30;;;;;;4268550;27;20046;-58
2023/09/06 08:27:23;;;;;;;14.38;4.45;;;26.10;91.80;;;;;;4267392;27;20047;-60
2023/09/06 08:29:25;;;;;;;12.10;3.97;;;26.10;91.70;;;;;;4267233;27;20141;-59
2023/09/06 08:31:29;;;;;;;24.20;5.68;;;26.20;91.70;;;;;;4266848;27;20099;-60
2023/09/06 08:33:31;;;;;;;27.38;5.13;;;26.20;91.90;;;;;;4266065;27;20046;-59
2023/09/06 08:35:34;;;;;;;30.15;4.97;;;26.20;91.60;;;;;;4266222;27;20053;-56
2023/09/06 08:37:36;;;;;;;29.02;6.03;;;26.20;91.70;;;;;;4260316;27;20066;-58
2023/09/06 08:39:38;;;;;;;28.83;6.18;;;26.30;91.80;;;;;;4262800;27;20046;-57
2023/09/06 08:41:42;;;;;;;16.73;4.65;;;26.40;91.70;;;;;;4266153;27;20404;-56
2023/09/06 08:43:45;;;;;;;27.25;5.32;;;26.40;91.50;;;;;;4266295;27;20107;-56
2023/09/06 08:45:50;;;;;;;24.30;5.45;;;26.50;91.70;;;;;;4266466;27;20452;-57
2023/09/06 08:47:53;;;;;;;22.73;4.65;;;26.50;91.60;;;;;;4266445;27;20062;-58
2023/09/06 08:49:56;;;;;;;32.57;5.30;;;26.50;91.50;;;;;;4266816;27;20096;-59
2023/09/06 08:52:00;;;;;;;24.80;5.00;;;26.60;91.50;;;;;;4265845;27;20063;-59
2023/09/06 08:54:04;;;;;;;17.33;4.50;;;26.60;91.60;;;;;;4266155;27;20051;-58
2023/09/06 08:56:07;;;;;;;25.05;4.90;;;26.60;91.20;;;;;;4266502;27;20495;-57
2023/09/06 08:58:09;;;;;;;19.02;5.10;;;26.60;91.20;;;;;;4266636;27;20042;-59
2023/09/06 09:00:13;;;;;;;21.95;4.72;;;26.60;91.30;;;;;;4265919;27;20043;-59
2023/09/06 09:02:16;;;;;;;;;;;26.70;91.30;;;;;;4265779;27;20082;-59
2023/09/06 09:04:19;;;;;;;21.17;5.03;;;26.80;91.40;;;;;;4266141;27;20062;-60
2023/09/06 09:06:21;;;;;;;12.18;4.40;;;26.80;91.60;;;;;;4247899;27;20524;-59
2023/09/06 09:08:27;;;;;;;21.65;4.78;;;26.90;91.30;;;;;;4266152;27;20451;-57
2023/09/06 09:10:31;;;;;;;16.85;3.95;;;27.00;91.20;;;;;;4263627;27;20103;-59
2023/09/06 09:12:36;;;;;;;23.52;4.00;;;27.10;91.20;;;;;;4256901;27;20485;-60
2023/09/06 09:14:38;;;;;;;302.88;20.05;;;27.10;91.10;;;;;;4262771;27;20099;-59
2023/09/06 09:16:40;;;;;;;22.63;4.65;;;27.20;93.30;;;;;;4257354;27;20112;-61
2023/09/06 09:18:44;;;;;;;25.70;5.25;;;27.20;96.10;;;;;;4230700;27;20046;-60
2023/09/06 09:20:48;;;;;;;23.77;5.53;;;27.20;95.00;;;;;;4263349;27;20055;-60
2023/09/06 09:22:51;;;;;;;17.67;5.10;;;27.00;94.00;;;;;;4264331;27;20444;-61
2023/09/06 09:24:58;;;;;;;16.15;4.60;;;26.90;94.30;;;;;;4261870;27;20042;-61
2023/09/06 09:27:00;;;;;;;17.13;5.38;;;26.90;93.30;;;;;;4252106;27;20069;-60
2023/09/06 09:29:03;;;;;;;20.90;4.75;;;26.90;92.70;;;;;;4264799;27;20181;-59
2023/09/06 09:31:06;;;;;;;25.40;4.57;;;26.90;93.20;;;;;;4264704;27;20125;-61
2023/09/06 09:33:14;;;;;;;26.30;4.50;;;26.90;93.40;;;;;;4229420;28;20067;-60
2023/09/06 09:35:21;;;;;;;26.42;4.57;;;27.00;93.30;;;;;;4248021;27;20043;-60
2023/09/06 09:37:29;;;;;;;13.45;3.20;;;27.00;92.10;;;;;;4248201;27;20129;-60
2023/09/06 09:39:31;;;;;;;11.95;3.78;;;27.00;91.00;;;;;;4248175;27;20047;-58
2023/09/06 09:41:34;;;;;;;9.13;3.25;;;27.00;91.50;;;;;;4248011;27;20476;-58
2023/09/06 09:44:12;;;;;;;13.57;3.33;;;27.00;91.40;;;;;;4247052;27;20167;-58
2023/09/06 09:46:26;;;;;;;6.13;2.85;;;27.10;90.70;;;;;;4256223;27;20078;-60
2023/09/06 09:48:30;;;;;;;11.15;3.08;;;27.10;90.40;;;;;;4247692;27;20070;-57
2023/09/06 09:50:34;;;;;;;9.52;3.03;;;27.10;90.60;;;;;;4248177;27;20047;-57
2023/09/06 09:52:40;;;;;;;16.10;3.95;;;27.20;91.10;;;;;;4246912;27;20051;-58
2023/09/06 09:54:47;;;;;;;35.33;6.00;;;27.30;91.00;;;;;;4248372;27;20055;-58
2023/09/06 09:57:06;;;;;;;36.28;5.38;;;27.40;91.40;;;;;;4247918;27;20043;-57
2023/09/06 09:59:10;;;;;;;13.32;3.40;;;27.70;90.50;;;;;;4247925;27;20047;-57
2023/09/06 10:01:12;;;;;;;11.20;2.80;;;27.70;90.60;;;;;;4248270;27;20209;-57
2023/09/06 10:03:15;;;;;;;14.82;2.80;;;27.80;90.10;;;;;;4254675;27;20039;-58
2023/09/06 10:05:19;;;;;;;13.27;3.08;;;27.80;90.10;;;;;;4265345;27;20189;-57
2023/09/06 10:07:24;;;;;;;9.32;2.75;;;27.80;89.70;;;;;;4265484;27;20043;-57
2023/09/06 10:09:47;;;;;;;7.45;2.90;;;27.80;90.00;;;;;;4265551;27;20117;-57
2023/09/06 10:11:51;;;;;;;12.45;3.30;;;27.90;89.40;;;;;;4259301;27;20039;-58
2023/09/06 10:13:53;;;;;;;12.40;3.03;;;27.90;89.70;;;;;;4246619;27;20050;-58
2023/09/06 10:15:59;;;;;;;10.40;3.60;;;28.00;89.20;;;;;;4250850;27;20054;-58
2023/09/06 10:18:01;;;;;;;6.00;2.90;;;28.20;89.80;;;;;;4265251;27;20137;-57
2023/09/06 10:20:05;;;;;;;9.95;3.13;;;28.30;89.40;;;;;;4264813;27;20043;-58
2023/09/06 10:22:12;;;;;;;10.90;3.00;;;28.20;89.20;;;;;;4264551;27;20054;-58
2023/09/06 10:24:18;;;;;;;8.13;3.15;;;28.30;89.70;;;;;;4262782;27;20049;-58
2023/09/06 10:26:35;;;;;;;16.00;3.75;;;28.50;89.90;;;;;;4265116;27;20083;-58
2023/09/06 10:28:37;;;;;;;11.13;3.30;;;28.60;89.10;;;;;;4264679;27;20057;-57
2023/09/06 10:30:45;;;;;;;9.82;3.35;;;28.60;88.80;;;;;;4265005;27;20052;-59
2023/09/06 10:32:48;;;;;;;8.77;3.75;;;28.60;88.90;;;;;;4263944;27;20047;-59
2023/09/06 10:35:22;;;;;;;11.75;3.72;;;28.60;88.60;;;;;;4246342;27;20039;-60
2023/09/06 10:38:06;;;;;;;10.35;3.17;;;28.80;88.50;;;;;;4265075;27;20450;-60
2023/09/06 10:40:12;;;;;;;9.82;2.97;;;28.80;87.90;;;;;;4264892;27;20050;-57